sensor_id;sensor_type;location;lat;lon;timestamp;pressure;altitude;pressure_sealevel;temperature;humidity
44309;BME280;30022;55.846;37.340;2023-03-31T00:01:10;47564.25;;;-143.51;100.00
44309;BME280;30022;55.846;37.340;2023-03-31T00:03:36;47568.22;;;-143.51;100.00
44309;BME280;30022;55.846;37.340;2023-03-31T00:06:03;47564.25;;;-143.51;100.00
44309;BME280;30022;55.846;37.340;2023-03-31T00:08:30;47582.03;;;-143.51;100.00
44309;BME280;30022;55.846;37.340;2023-03-31T00:11:00;47574.13;;;-143.51;100.00
44309;BME280;30022;55.846;37.340;2023-03-31T00:13:26;47578.09;;;-143.51;100.00
44309;BME280;30022;55.846;37.340;2023-03-31T00:15:56;47566.22;;;-143.51;100.00
44309;BME280;30022;55.846;37.340;2023-03-31T00:18:21;47587.97;;;-143.51;100.00
44309;BME280;30022;55.846;37.340;2023-03-31T00:20:47;47578.09;;;-143.51;100.00
44309;BME280;30022;55.846;37.340;2023-03-31T00:23:12;47593.88;;;-143.51;100.00
44309;BME280;30022;55.846;37.340;2023-03-31T00:25:38;47560.31;;;-143.51;100.00
44309;BME280;30022;55.846;37.340;2023-03-31T00:28:05;47593.88;;;-143.51;100.00
44309;BME280;30022;55.846;37.340;2023-03-31T00:30:31;47625.50;;;-143.51;100.00
44309;BME280;30022;55.846;37.340;2023-03-31T00:32:58;47589.94;;;-143.51;100.00
44309;BME280;30022;55.846;37.340;2023-03-31T00:35:24;47591.91;;;-143.51;100.00
44309;BME280;30022;55.846;37.340;2023-03-31T00:37:50;47570.19;;;-143.51;100.00
44309;BME280;30022;55.846;37.340;2023-03-31T00:40:15;47599.81;;;-143.51;100.00
44309;BME280;30022;55.846;37.340;2023-03-31T00:42:42;47585.97;;;-143.51;100.00
44309;BME280;30022;55.846;37.340;2023-03-31T00:47:41;47597.84;;;-143.51;100.00
44309;BME280;30022;55.846;37.340;2023-03-31T00:50:17;47635.38;;;-143.51;100.00
44309;BME280;30022;55.846;37.340;2023-03-31T00:52:46;47619.56;;;-143.51;100.00
44309;BME280;30022;55.846;37.340;2023-03-31T00:55:16;47589.94;;;-143.51;100.00
44309;BME280;30022;55.846;37.340;2023-03-31T00:57:44;47615.63;;;-143.51;100.00
44309;BME280;30022;55.846;37.340;2023-03-31T01:00:11;47678.81;;;-143.51;100.00
44309;BME280;30022;55.846;37.340;2023-03-31T01:02:45;47635.38;;;-143.51;100.00
44309;BME280;30022;55.846;37.340;2023-03-31T01:05:33;47657.09;;;-143.51;100.00
44309;BME280;30022;55.846;37.340;2023-03-31T01:08:00;47659.06;;;-143.51;100.00
44309;BME280;30022;55.846;37.340;2023-03-31T01:10:27;47690.69;;;-143.51;100.00
44309;BME280;30022;55.846;37.340;2023-03-31T01:12:54;47718.34;;;-143.51;100.00
44309;BME280;30022;55.846;37.340;2023-03-31T01:15:20;47665.00;;;-143.51;100.00
44309;BME280;30022;55.846;37.340;2023-03-31T01:17:47;47724.25;;;-143.51;100.00
44309;BME280;30022;55.846;37.340;2023-03-31T01:26:23;47704.50;;;-143.51;100.00
44309;BME280;30022;55.846;37.340;2023-03-31T01:33:59;47740.06;;;-143.51;100.00
44309;BME280;30022;55.846;37.340;2023-03-31T01:46:59;47789.44;;;-143.51;100.00
44309;BME280;30022;55.846;37.340;2023-03-31T01:49:38;47747.97;;;-143.51;100.00
44309;BME280;30022;55.846;37.340;2023-03-31T01:55:06;47783.53;;;-143.51;100.00
44309;BME280;30022;55.846;37.340;2023-03-31T01:57:39;47767.72;;;-143.51;100.00
44309;BME280;30022;55.846;37.340;2023-03-31T02:00:07;47817.09;;;-143.51;100.00
44309;BME280;30022;55.846;37.340;2023-03-31T02:02:42;47789.44;;;-143.51;100.00
44309;BME280;30022;55.846;37.340;2023-03-31T02:05:15;47828.97;;;-143.51;100.00
44309;BME280;30022;55.846;37.340;2023-03-31T02:07:47;47791.41;;;-143.51;100.00
44309;BME280;30022;55.846;37.340;2023-03-31T02:10:17;47821.06;;;-143.51;100.00
44309;BME280;30022;55.846;37.340;2023-03-31T02:12:42;47815.13;;;-143.51;100.00
44309;BME280;30022;55.846;37.340;2023-03-31T02:15:10;47828.97;;;-143.51;100.00
44309;BME280;30022;55.846;37.340;2023-03-31T02:17:39;47815.13;;;-143.51;100.00
44309;BME280;30022;55.846;37.340;2023-03-31T02:20:08;47811.19;;;-143.51;100.00
44309;BME280;30022;55.846;37.340;2023-03-31T02:22:36;47809.19;;;-143.51;100.00
44309;BME280;30022;55.846;37.340;2023-03-31T02:25:02;47866.50;;;-143.51;100.00
44309;BME280;30022;55.846;37.340;2023-03-31T02:27:31;47840.81;;;-143.51;100.00
44309;BME280;30022;55.846;37.340;2023-03-31T02:29:59;47874.38;;;-143.51;100.00
44309;BME280;30022;55.846;37.340;2023-03-31T02:32:34;47826.97;;;-143.51;100.00
44309;BME280;30022;55.846;37.340;2023-03-31T02:35:00;47864.50;;;-143.51;100.00
44309;BME280;30022;55.846;37.340;2023-03-31T02:37:27;47892.16;;;-143.51;100.00
44309;BME280;30022;55.846;37.340;2023-03-31T02:39:54;47838.84;;;-143.51;100.00
44309;BME280;30022;55.846;37.340;2023-03-31T02:42:21;47844.75;;;-143.51;100.00
44309;BME280;30022;55.846;37.340;2023-03-31T02:44:49;47838.84;;;-143.51;100.00
44309;BME280;30022;55.846;37.340;2023-03-31T02:47:15;47779.56;;;-143.51;100.00
44309;BME280;30022;55.846;37.340;2023-03-31T02:49:51;47838.84;;;-143.51;100.00
44309;BME280;30022;55.846;37.340;2023-03-31T03:10:19;47886.25;;;-143.51;100.00
44309;BME280;30022;55.846;37.340;2023-03-31T03:12:53;47929.69;;;-143.51;100.00
44309;BME280;30022;55.846;37.340;2023-03-31T03:15:55;47906.00;;;-143.51;100.00
44309;BME280;30022;55.846;37.340;2023-03-31T03:18:13;47894.16;;;-143.51;100.00
44309;BME280;30022;55.846;37.340;2023-03-31T03:20:40;47882.28;;;-143.51;100.00
44309;BME280;30022;55.846;37.340;2023-03-31T03:23:06;47884.28;;;-143.51;100.00
44309;BME280;30022;55.846;37.340;2023-03-31T03:25:32;47892.16;;;-143.51;100.00
44309;BME280;30022;55.846;37.340;2023-03-31T03:27:59;47898.09;;;-143.51;100.00
44309;BME280;30022;55.846;37.340;2023-03-31T03:30:25;47900.06;;;-143.51;100.00
44309;BME280;30022;55.846;37.340;2023-03-31T03:32:50;47933.66;;;-143.51;100.00
44309;BME280;30022;55.846;37.340;2023-03-31T03:35:16;47919.81;;;-143.51;100.00
44309;BME280;30022;55.846;37.340;2023-03-31T03:37:42;47911.94;;;-143.51;100.00
44309;BME280;30022;55.846;37.340;2023-03-31T03:40:07;47886.25;;;-143.51;100.00
44309;BME280;30022;55.846;37.340;2023-03-31T03:42:34;47874.38;;;-143.51;100.00
44309;BME280;30022;55.846;37.340;2023-03-31T03:45:00;47900.06;;;-143.51;100.00
44309;BME280;30022;55.846;37.340;2023-03-31T03:47:27;47945.50;;;-143.51;100.00
44309;BME280;30022;55.846;37.340;2023-03-31T03:49:52;47919.81;;;-143.51;100.00
44309;BME280;30022;55.846;37.340;2023-03-31T03:52:18;47890.19;;;-143.51;100.00
44309;BME280;30022;55.846;37.340;2023-03-31T03:54:45;47862.53;;;-143.51;100.00
44309;BME280;30022;55.846;37.340;2023-03-31T03:57:10;47902.03;;;-143.51;100.00
44309;BME280;30022;55.846;37.340;2023-03-31T03:59:36;47900.06;;;-143.51;100.00
44309;BME280;30022;55.846;37.340;2023-03-31T04:02:02;47919.81;;;-143.51;100.00
44309;BME280;30022;55.846;37.340;2023-03-31T04:04:28;47866.50;;;-143.51;100.00
44309;BME280;30022;55.846;37.340;2023-03-31T04:06:53;47880.31;;;-143.51;100.00
44309;BME280;30022;55.846;37.340;2023-03-31T04:09:19;47907.97;;;-143.51;100.00
44309;BME280;30022;55.846;37.340;2023-03-31T04:11:44;47862.53;;;-143.51;100.00
44309;BME280;30022;55.846;37.340;2023-03-31T04:14:10;47925.75;;;-143.51;100.00
44309;BME280;30022;55.846;37.340;2023-03-31T04:16:36;47886.25;;;-143.51;100.00
44309;BME280;30022;55.846;37.340;2023-03-31T04:19:02;47927.72;;;-143.51;100.00
44309;BME280;30022;55.846;37.340;2023-03-31T04:21:29;47911.94;;;-143.51;100.00
44309;BME280;30022;55.846;37.340;2023-03-31T04:23:59;47939.59;;;-143.51;100.00
44309;BME280;30022;55.846;37.340;2023-03-31T04:26:29;47941.56;;;-143.51;100.00
44309;BME280;30022;55.846;37.340;2023-03-31T04:28:58;47965.25;;;-143.51;100.00
44309;BME280;30022;55.846;37.340;2023-03-31T04:31:25;47992.91;;;-143.51;100.00
44309;BME280;30022;55.846;37.340;2023-03-31T04:33:52;47957.38;;;-143.51;100.00
44309;BME280;30022;55.846;37.340;2023-03-31T04:36:17;47961.31;;;-143.51;100.00
44309;BME280;30022;55.846;37.340;2023-03-31T04:38:44;47911.94;;;-143.51;100.00
44309;BME280;30022;55.846;37.340;2023-03-31T04:41:14;47906.00;;;-143.51;100.00
44309;BME280;30022;55.846;37.340;2023-03-31T04:43:39;47874.38;;;-143.51;100.00
44309;BME280;30022;55.846;37.340;2023-03-31T04:46:05;47878.34;;;-143.51;100.00
44309;BME280;30022;55.846;37.340;2023-03-31T04:48:31;47872.41;;;-143.51;100.00
44309;BME280;30022;55.846;37.340;2023-03-31T04:50:56;47836.84;;;-143.51;100.00
44309;BME280;30022;55.846;37.340;2023-03-31T04:53:22;47870.44;;;-143.51;100.00
44309;BME280;30022;55.846;37.340;2023-03-31T04:55:48;47799.31;;;-143.51;100.00
44309;BME280;30022;55.846;37.340;2023-03-31T04:58:14;47821.06;;;-143.51;100.00
44309;BME280;30022;55.846;37.340;2023-03-31T05:00:39;47775.63;;;-143.51;100.00
44309;BME280;30022;55.846;37.340;2023-03-31T05:03:05;47763.75;;;-143.51;100.00
44309;BME280;30022;55.846;37.340;2023-03-31T05:05:31;47700.56;;;-143.51;100.00
44309;BME280;30022;55.846;37.340;2023-03-31T05:07:57;47726.22;;;-143.51;100.00
44309;BME280;30022;55.846;37.340;2023-03-31T05:10:23;47722.28;;;-143.51;100.00
44309;BME280;30022;55.846;37.340;2023-03-31T05:12:48;47736.09;;;-143.51;100.00
44309;BME280;30022;55.846;37.340;2023-03-31T05:15:14;47753.88;;;-143.51;100.00
44309;BME280;30022;55.846;37.340;2023-03-31T05:17:40;47767.72;;;-143.51;100.00
44309;BME280;30022;55.846;37.340;2023-03-31T05:20:06;47819.06;;;-143.51;100.00
44309;BME280;30022;55.846;37.340;2023-03-31T05:22:34;47759.81;;;-143.51;100.00
44309;BME280;30022;55.846;37.340;2023-03-31T05:24:59;47684.75;;;-143.51;100.00
44309;BME280;30022;55.846;37.340;2023-03-31T05:27:25;47684.75;;;-143.51;100.00
44309;BME280;30022;55.846;37.340;2023-03-31T05:29:51;47700.56;;;-143.51;100.00
44309;BME280;30022;55.846;37.340;2023-03-31T05:32:16;47781.53;;;-143.51;100.00
44309;BME280;30022;55.846;37.340;2023-03-31T05:34:42;47757.84;;;-143.51;100.00
44309;BME280;30022;55.846;37.340;2023-03-31T05:37:08;47672.91;;;-143.51;100.00
44309;BME280;30022;55.846;37.340;2023-03-31T05:39:33;47700.56;;;-143.51;100.00
44309;BME280;30022;55.846;37.340;2023-03-31T05:41:59;47767.72;;;-143.51;100.00
44309;BME280;30022;55.846;37.340;2023-03-31T05:44:25;47694.63;;;-143.51;100.00
44309;BME280;30022;55.846;37.340;2023-03-31T05:46:52;47783.53;;;-143.51;100.00
44309;BME280;30022;55.846;37.340;2023-03-31T05:49:17;47834.88;;;-143.51;100.00
44309;BME280;30022;55.846;37.340;2023-03-31T05:51:43;47860.56;;;-143.51;100.00
44309;BME280;30022;55.846;37.340;2023-03-31T05:54:08;47736.09;;;-143.51;100.00
44309;BME280;30022;55.846;37.340;2023-03-31T05:56:34;47615.63;;;-143.51;100.00
44309;BME280;30022;55.846;37.340;2023-03-31T05:59:00;47655.13;;;-143.51;100.00
44309;BME280;30022;55.846;37.340;2023-03-31T06:01:25;47746.00;;;-143.51;100.00
44309;BME280;30022;55.846;37.340;2023-03-31T06:03:51;47757.84;;;-143.51;100.00
44309;BME280;30022;55.846;37.340;2023-03-31T06:06:17;47738.09;;;-143.51;100.00
44309;BME280;30022;55.846;37.340;2023-03-31T06:08:44;47749.94;;;-143.51;100.00
44309;BME280;30022;55.846;37.340;2023-03-31T06:11:11;47708.44;;;-143.51;100.00
44309;BME280;30022;55.846;37.340;2023-03-31T06:13:37;47595.84;;;-143.51;100.00
44309;BME280;30022;55.846;37.340;2023-03-31T06:16:06;47506.97;;;-143.51;100.00
44309;BME280;30022;55.846;37.340;2023-03-31T06:18:33;47524.75;;;-143.51;100.00
44309;BME280;30022;55.846;37.340;2023-03-31T06:20:59;47550.44;;;-143.51;100.00
44309;BME280;30022;55.846;37.340;2023-03-31T06:23:25;47475.38;;;-143.51;100.00
44309;BME280;30022;55.846;37.340;2023-03-31T06:25:51;47437.84;;;-143.51;100.00
44309;BME280;30022;55.846;37.340;2023-03-31T06:28:17;47404.25;;;-143.51;100.00
44309;BME280;30022;55.846;37.340;2023-03-31T06:30:45;47364.75;;;-143.51;100.00
44309;BME280;30022;55.846;37.340;2023-03-31T06:33:11;47394.38;;;-143.51;100.00
44309;BME280;30022;55.846;37.340;2023-03-31T06:35:38;47414.13;;;-143.51;100.00
44309;BME280;30022;55.846;37.340;2023-03-31T06:38:04;47386.47;;;-143.51;100.00
44309;BME280;30022;55.846;37.340;2023-03-31T06:40:30;47402.28;;;-143.51;100.00
44309;BME280;30022;55.846;37.340;2023-03-31T06:42:56;47341.06;;;-143.51;100.00
44309;BME280;30022;55.846;37.340;2023-03-31T06:45:21;47350.94;;;-143.51;100.00
44309;BME280;30022;55.846;37.340;2023-03-31T06:47:47;47425.97;;;-143.51;100.00
44309;BME280;30022;55.846;37.340;2023-03-31T06:50:13;47435.88;;;-143.51;100.00
44309;BME280;30022;55.846;37.340;2023-03-31T06:52:38;47372.66;;;-143.51;100.00
44309;BME280;30022;55.846;37.340;2023-03-31T06:55:05;47341.06;;;-143.51;100.00
44309;BME280;30022;55.846;37.340;2023-03-31T06:57:31;47380.56;;;-143.51;100.00
44309;BME280;30022;55.846;37.340;2023-03-31T06:59:58;47370.69;;;-143.51;100.00
44309;BME280;30022;55.846;37.340;2023-03-31T07:02:24;47354.88;;;-143.51;100.00
44309;BME280;30022;55.846;37.340;2023-03-31T07:04:50;47339.06;;;-143.51;100.00
44309;BME280;30022;55.846;37.340;2023-03-31T07:07:15;47311.41;;;-143.51;100.00
44309;BME280;30022;55.846;37.340;2023-03-31T07:09:41;47325.25;;;-143.51;100.00
44309;BME280;30022;55.846;37.340;2023-03-31T07:12:07;47283.78;;;-143.51;100.00
44309;BME280;30022;55.846;37.340;2023-03-31T07:14:34;47254.16;;;-143.51;100.00
44309;BME280;30022;55.846;37.340;2023-03-31T07:17:00;47303.53;;;-143.51;100.00
44309;BME280;30022;55.846;37.340;2023-03-31T07:19:26;47317.34;;;-143.51;100.00
44309;BME280;30022;55.846;37.340;2023-03-31T07:21:51;47354.88;;;-143.51;100.00
44309;BME280;30022;55.846;37.340;2023-03-31T07:24:18;47313.41;;;-143.51;100.00
44309;BME280;30022;55.846;37.340;2023-03-31T07:26:43;47329.19;;;-143.51;100.00
44309;BME280;30022;55.846;37.340;2023-03-31T07:29:09;47266.00;;;-143.51;100.00
44309;BME280;30022;55.846;37.340;2023-03-31T07:31:35;47262.03;;;-143.51;100.00
44309;BME280;30022;55.846;37.340;2023-03-31T07:34:02;47277.84;;;-143.51;100.00
44309;BME280;30022;55.846;37.340;2023-03-31T07:36:28;47333.16;;;-143.51;100.00
44309;BME280;30022;55.846;37.340;2023-03-31T07:38:54;47321.28;;;-143.51;100.00
44309;BME280;30022;55.846;37.340;2023-03-31T07:41:20;47388.47;;;-143.51;100.00
44309;BME280;30022;55.846;37.340;2023-03-31T07:43:46;47317.34;;;-143.51;100.00
44309;BME280;30022;55.846;37.340;2023-03-31T07:46:16;47277.84;;;-143.51;100.00
44309;BME280;30022;55.846;37.340;2023-03-31T07:48:42;47297.59;;;-143.51;100.00
44309;BME280;30022;55.846;37.340;2023-03-31T07:51:08;47266.00;;;-143.51;100.00
44309;BME280;30022;55.846;37.340;2023-03-31T07:53:35;47271.91;;;-143.51;100.00
44309;BME280;30022;55.846;37.340;2023-03-31T07:56:01;47271.91;;;-143.51;100.00
44309;BME280;30022;55.846;37.340;2023-03-31T07:58:27;47254.16;;;-143.51;100.00
44309;BME280;30022;55.846;37.340;2023-03-31T08:00:53;47301.53;;;-143.51;100.00
44309;BME280;30022;55.846;37.340;2023-03-31T08:03:22;47307.47;;;-143.51;100.00
44309;BME280;30022;55.846;37.340;2023-03-31T08:05:50;47414.13;;;-143.51;100.00
44309;BME280;30022;55.846;37.340;2023-03-31T08:08:16;47291.66;;;-143.51;100.00
44309;BME280;30022;55.846;37.340;2023-03-31T08:10:41;47269.94;;;-143.51;100.00
44309;BME280;30022;55.846;37.340;2023-03-31T08:13:07;47252.16;;;-143.51;100.00
44309;BME280;30022;55.846;37.340;2023-03-31T08:15:32;47252.16;;;-143.51;100.00
44309;BME280;30022;55.846;37.340;2023-03-31T08:17:58;47250.19;;;-143.51;100.00
44309;BME280;30022;55.846;37.340;2023-03-31T08:20:24;47273.91;;;-143.51;100.00
44309;BME280;30022;55.846;37.340;2023-03-31T08:22:49;47188.97;;;-143.51;100.00
44309;BME280;30022;55.846;37.340;2023-03-31T08:25:15;47151.44;;;-143.51;100.00
44309;BME280;30022;55.846;37.340;2023-03-31T08:27:41;47214.63;;;-143.51;100.00
44309;BME280;30022;55.846;37.340;2023-03-31T08:30:08;47267.97;;;-143.51;100.00
44309;BME280;30022;55.846;37.340;2023-03-31T08:32:34;47222.53;;;-143.51;100.00
44309;BME280;30022;55.846;37.340;2023-03-31T08:35:00;47240.31;;;-143.51;100.00
44309;BME280;30022;55.846;37.340;2023-03-31T08:37:26;47194.88;;;-143.51;100.00
44309;BME280;30022;55.846;37.340;2023-03-31T08:39:53;47115.88;;;-143.51;100.00
44309;BME280;30022;55.846;37.340;2023-03-31T08:42:20;47147.47;;;-143.51;100.00
44309;BME280;30022;55.846;37.340;2023-03-31T08:44:57;47179.09;;;-143.51;100.00
44309;BME280;30022;55.846;37.340;2023-03-31T08:47:24;47143.53;;;-143.51;100.00
44309;BME280;30022;55.846;37.340;2023-03-31T08:49:53;47106.00;;;-143.51;100.00
44309;BME280;30022;55.846;37.340;2023-03-31T08:52:22;47094.16;;;-143.51;100.00
44309;BME280;30022;55.846;37.340;2023-03-31T08:54:54;47098.09;;;-143.51;100.00
44309;BME280;30022;55.846;37.340;2023-03-31T08:57:23;47052.69;;;-143.51;100.00
44309;BME280;30022;55.846;37.340;2023-03-31T08:59:49;47068.47;;;-143.51;100.00
44309;BME280;30022;55.846;37.340;2023-03-31T09:05:01;47040.84;;;-143.51;100.00
44309;BME280;30022;55.846;37.340;2023-03-31T09:15:10;47060.59;;;-143.51;100.00
44309;BME280;30022;55.846;37.340;2023-03-31T09:17:40;47044.78;;;-143.51;100.00
44309;BME280;30022;55.846;37.340;2023-03-31T09:22:55;47078.34;;;-143.51;100.00
44309;BME280;30022;55.846;37.340;2023-03-31T09:25:22;47040.84;;;-143.51;100.00
44309;BME280;30022;55.846;37.340;2023-03-31T09:27:51;47074.41;;;-143.51;100.00
44309;BME280;30022;55.846;37.340;2023-03-31T09:32:44;47072.44;;;-143.51;100.00
44309;BME280;30022;55.846;37.340;2023-03-31T09:35:20;47038.84;;;-143.51;100.00
44309;BME280;30022;55.846;37.340;2023-03-31T09:37:46;47090.22;;;-143.51;100.00
44309;BME280;30022;55.846;37.340;2023-03-31T09:40:16;47017.13;;;-143.51;100.00
44309;BME280;30022;55.846;37.340;2023-03-31T09:42:43;47021.09;;;-143.51;100.00
44309;BME280;30022;55.846;37.340;2023-03-31T09:45:15;47040.84;;;-143.51;100.00
44309;BME280;30022;55.846;37.340;2023-03-31T09:47:42;47032.94;;;-143.51;100.00
44309;BME280;30022;55.846;37.340;2023-03-31T09:50:09;47019.09;;;-143.51;100.00
44309;BME280;30022;55.846;37.340;2023-03-31T09:52:51;47013.19;;;-143.51;100.00
44309;BME280;30022;55.846;37.340;2023-03-31T09:55:28;47028.97;;;-143.51;100.00
44309;BME280;30022;55.846;37.340;2023-03-31T09:57:58;47048.72;;;-143.51;100.00
44309;BME280;30022;55.846;37.340;2023-03-31T10:00:24;47036.88;;;-143.51;100.00
44309;BME280;30022;55.846;37.340;2023-03-31T10:02:56;47036.88;;;-143.51;100.00
44309;BME280;30022;55.846;37.340;2023-03-31T10:05:29;47044.78;;;-143.51;100.00
44309;BME280;30022;55.846;37.340;2023-03-31T10:08:13;47025.03;;;-143.51;100.00
44309;BME280;30022;55.846;37.340;2023-03-31T10:10:44;47001.34;;;-143.51;100.00
44309;BME280;30022;55.846;37.340;2023-03-31T10:13:12;47013.19;;;-143.51;100.00
44309;BME280;30022;55.846;37.340;2023-03-31T10:15:39;47048.72;;;-143.51;100.00
44309;BME280;30022;55.846;37.340;2023-03-31T10:18:10;47070.47;;;-143.51;100.00
44309;BME280;30022;55.846;37.340;2023-03-31T10:20:38;47027.00;;;-143.51;100.00
44309;BME280;30022;55.846;37.340;2023-03-31T10:23:17;46999.34;;;-143.51;100.00
44309;BME280;30022;55.846;37.340;2023-03-31T10:25:46;46993.44;;;-143.51;100.00
44309;BME280;30022;55.846;37.340;2023-03-31T10:28:19;46983.56;;;-143.51;100.00
44309;BME280;30022;55.846;37.340;2023-03-31T10:30:46;47001.34;;;-143.51;100.00
44309;BME280;30022;55.846;37.340;2023-03-31T10:33:15;47009.22;;;-143.51;100.00
44309;BME280;30022;55.846;37.340;2023-03-31T10:35:42;46983.56;;;-143.51;100.00
44309;BME280;30022;55.846;37.340;2023-03-31T10:38:13;47003.31;;;-143.51;100.00
44309;BME280;30022;55.846;37.340;2023-03-31T10:40:40;47072.44;;;-143.51;100.00
44309;BME280;30022;55.846;37.340;2023-03-31T10:45:37;47032.94;;;-143.51;100.00
44309;BME280;30022;55.846;37.340;2023-03-31T10:48:15;47025.03;;;-143.51;100.00
44309;BME280;30022;55.846;37.340;2023-03-31T10:50:46;47019.09;;;-143.51;100.00
44309;BME280;30022;55.846;37.340;2023-03-31T10:53:16;47090.22;;;-143.51;100.00
44309;BME280;30022;55.846;37.340;2023-03-31T10:55:49;47032.94;;;-143.51;100.00
44309;BME280;30022;55.846;37.340;2023-03-31T11:00:54;47025.03;;;-143.51;100.00
44309;BME280;30022;55.846;37.340;2023-03-31T11:03:34;47001.34;;;-143.51;100.00
44309;BME280;30022;55.846;37.340;2023-03-31T11:06:12;46999.34;;;-143.51;100.00
44309;BME280;30022;55.846;37.340;2023-03-31T11:13:50;47007.25;;;-143.51;100.00
44309;BME280;30022;55.846;37.340;2023-03-31T11:18:55;46989.47;;;-143.51;100.00
44309;BME280;30022;55.846;37.340;2023-03-31T11:24:16;46999.34;;;-143.51;100.00
44309;BME280;30022;55.846;37.340;2023-03-31T11:29:43;47028.97;;;-143.51;100.00
44309;BME280;30022;55.846;37.340;2023-03-31T11:35:16;47056.63;;;-143.51;100.00
44309;BME280;30022;55.846;37.340;2023-03-31T11:37:46;47005.28;;;-143.51;100.00
44309;BME280;30022;55.846;37.340;2023-03-31T11:45:28;46999.34;;;-143.51;100.00
44309;BME280;30022;55.846;37.340;2023-03-31T11:47:58;46973.69;;;-143.51;100.00
44309;BME280;30022;55.846;37.340;2023-03-31T11:50:28;46989.47;;;-143.51;100.00
44309;BME280;30022;55.846;37.340;2023-03-31T11:52:56;47001.34;;;-143.51;100.00
44309;BME280;30022;55.846;37.340;2023-03-31T11:55:24;46989.47;;;-143.51;100.00
44309;BME280;30022;55.846;37.340;2023-03-31T11:58:09;47007.25;;;-143.51;100.00
44309;BME280;30022;55.846;37.340;2023-03-31T12:00:38;47015.16;;;-143.51;100.00
44309;BME280;30022;55.846;37.340;2023-03-31T12:03:15;47076.38;;;-143.51;100.00
44309;BME280;30022;55.846;37.340;2023-03-31T12:05:44;47046.75;;;-143.51;100.00
44309;BME280;30022;55.846;37.340;2023-03-31T12:08:22;47030.97;;;-143.51;100.00
44309;BME280;30022;55.846;37.340;2023-03-31T12:10:53;47021.09;;;-143.51;100.00
44309;BME280;30022;55.846;37.340;2023-03-31T12:13:28;47060.59;;;-143.51;100.00
44309;BME280;30022;55.846;37.340;2023-03-31T12:16:19;47052.69;;;-143.51;100.00
44309;BME280;30022;55.846;37.340;2023-03-31T12:19:25;47048.72;;;-143.51;100.00
44309;BME280;30022;55.846;37.340;2023-03-31T12:21:31;47023.06;;;-143.51;100.00
44309;BME280;30022;55.846;37.340;2023-03-31T12:23:57;47017.13;;;-143.51;100.00
44309;BME280;30022;55.846;37.340;2023-03-31T12:26:32;47090.22;;;-143.51;100.00
44309;BME280;30022;55.846;37.340;2023-03-31T12:29:03;47094.16;;;-143.51;100.00
44309;BME280;30022;55.846;37.340;2023-03-31T12:31:31;47088.22;;;-143.51;100.00
44309;BME280;30022;55.846;37.340;2023-03-31T12:34:01;47027.00;;;-143.51;100.00
44309;BME280;30022;55.846;37.340;2023-03-31T12:41:59;47005.28;;;-143.51;100.00
44309;BME280;30022;55.846;37.340;2023-03-31T12:44:23;47064.53;;;-143.51;100.00
44309;BME280;30022;55.846;37.340;2023-03-31T12:59:37;47056.63;;;-143.51;100.00
44309;BME280;30022;55.846;37.340;2023-03-31T13:04:35;47019.09;;;-143.51;100.00
44309;BME280;30022;55.846;37.340;2023-03-31T13:07:04;46989.47;;;-143.51;100.00
44309;BME280;30022;55.846;37.340;2023-03-31T13:11:56;47086.25;;;-143.51;100.00
44309;BME280;30022;55.846;37.340;2023-03-31T13:14:22;47169.22;;;-143.51;100.00
44309;BME280;30022;55.846;37.340;2023-03-31T13:16:49;47131.69;;;-143.51;100.00
44309;BME280;30022;55.846;37.340;2023-03-31T13:19:36;47153.41;;;-143.51;100.00
44309;BME280;30022;55.846;37.340;2023-03-31T13:22:02;47139.59;;;-143.51;100.00
44309;BME280;30022;55.846;37.340;2023-03-31T13:24:29;47157.34;;;-143.51;100.00
44309;BME280;30022;55.846;37.340;2023-03-31T13:26:56;47149.47;;;-143.51;100.00
44309;BME280;30022;55.846;37.340;2023-03-31T13:29:42;47131.69;;;-143.51;100.00
44309;BME280;30022;55.846;37.340;2023-03-31T13:34:38;47119.84;;;-143.51;100.00
44309;BME280;30022;55.846;37.340;2023-03-31T13:50:13;47218.59;;;-143.51;100.00
44309;BME280;30022;55.846;37.340;2023-03-31T13:58:02;47179.09;;;-143.51;100.00
44309;BME280;30022;55.846;37.340;2023-03-31T14:03:11;47206.75;;;-143.51;100.00
44309;BME280;30022;55.846;37.340;2023-03-31T14:05:41;47163.28;;;-143.51;100.00
44309;BME280;30022;55.846;37.340;2023-03-31T14:08:15;47234.38;;;-143.51;100.00
44309;BME280;30022;55.846;37.340;2023-03-31T14:10:43;47222.53;;;-143.51;100.00
44309;BME280;30022;55.846;37.340;2023-03-31T14:13:19;47271.91;;;-143.51;100.00
44309;BME280;30022;55.846;37.340;2023-03-31T14:15:55;47309.44;;;-143.51;100.00
44309;BME280;30022;55.846;37.340;2023-03-31T14:18:23;47299.56;;;-143.51;100.00
44309;BME280;30022;55.846;37.340;2023-03-31T14:29:04;47327.22;;;-143.51;100.00
44309;BME280;30022;55.846;37.340;2023-03-31T14:34:22;47384.50;;;-143.51;100.00
44309;BME280;30022;55.846;37.340;2023-03-31T14:39:22;47382.53;;;-143.51;100.00
44309;BME280;30022;55.846;37.340;2023-03-31T14:41:51;47499.06;;;-143.51;100.00
44309;BME280;30022;55.846;37.340;2023-03-31T14:44:17;47356.84;;;-143.51;100.00
44309;BME280;30022;55.846;37.340;2023-03-31T14:46:43;47222.53;;;-143.51;100.00
44309;BME280;30022;55.846;37.340;2023-03-31T14:51:45;47273.91;;;-143.51;100.00
44309;BME280;30022;55.846;37.340;2023-03-31T14:54:15;47281.78;;;-143.51;100.00
44309;BME280;30022;55.846;37.340;2023-03-31T14:56:41;47258.09;;;-143.51;100.00